Terminal Aerodrome Forecast
Issued by NWS Jackson, MS

Home | Current Version | Previous Version | Text Only | Print | Product List | Glossary On
Versions: 1 2 3 4 5 6 7 8 9 10 11 12 13 14 15 16
000
FTUS44 KJAN 011400 AAB
TAFJAN
TAF AMD
KJAN 011436Z 0115/0212 14004KT 5SM BR OVC003
     FM011630 15005KT P6SM BKN250
     FM020900 17004KT 4SM BR OVC025=

USA.gov is the U.S. government's official web portal to all federal, state and local government web resources and services.